sensor_id;sensor_type;location;lat;lon;timestamp;temperature;humidity
2893;DHT22;1456;51.840;12.184;2023-11-21T00:01:04;8.70;99.90
2893;DHT22;1456;51.840;12.184;2023-11-21T00:03:30;8.80;99.90
2893;DHT22;1456;51.840;12.184;2023-11-21T00:05:56;8.70;99.90
2893;DHT22;1456;51.840;12.184;2023-11-21T00:08:22;8.60;99.90
2893;DHT22;1456;51.840;12.184;2023-11-21T00:10:48;8.60;99.90
2893;DHT22;1456;51.840;12.184;2023-11-21T00:13:13;8.60;99.90
2893;DHT22;1456;51.840;12.184;2023-11-21T00:15:40;8.60;99.90
2893;DHT22;1456;51.840;12.184;2023-11-21T00:18:06;8.60;99.90
2893;DHT22;1456;51.840;12.184;2023-11-21T00:20:32;8.50;99.90
2893;DHT22;1456;51.840;12.184;2023-11-21T00:22:58;8.50;99.90
2893;DHT22;1456;51.840;12.184;2023-11-21T00:25:24;8.40;99.90
2893;DHT22;1456;51.840;12.184;2023-11-21T00:27:50;8.40;99.90
2893;DHT22;1456;51.840;12.184;2023-11-21T00:30:19;8.40;99.90
2893;DHT22;1456;51.840;12.184;2023-11-21T00:32:45;8.40;99.90
2893;DHT22;1456;51.840;12.184;2023-11-21T00:35:11;8.40;99.90
2893;DHT22;1456;51.840;12.184;2023-11-21T00:37:36;8.40;99.90
2893;DHT22;1456;51.840;12.184;2023-11-21T00:40:04;8.40;99.90
2893;DHT22;1456;51.840;12.184;2023-11-21T00:42:32;8.40;99.90
2893;DHT22;1456;51.840;12.184;2023-11-21T00:44:59;8.40;99.90
2893;DHT22;1456;51.840;12.184;2023-11-21T00:47:24;8.40;99.90
2893;DHT22;1456;51.840;12.184;2023-11-21T00:49:50;8.40;99.90
2893;DHT22;1456;51.840;12.184;2023-11-21T00:52:16;8.30;99.90
2893;DHT22;1456;51.840;12.184;2023-11-21T00:54:43;8.30;99.90
2893;DHT22;1456;51.840;12.184;2023-11-21T00:57:11;8.40;99.90
2893;DHT22;1456;51.840;12.184;2023-11-21T00:59:37;8.40;99.90
2893;DHT22;1456;51.840;12.184;2023-11-21T01:02:02;8.40;99.90
2893;DHT22;1456;51.840;12.184;2023-11-21T01:04:32;8.50;99.90
2893;DHT22;1456;51.840;12.184;2023-11-21T01:06:58;8.50;99.90
2893;DHT22;1456;51.840;12.184;2023-11-21T01:09:24;8.50;99.90
2893;DHT22;1456;51.840;12.184;2023-11-21T01:11:49;8.50;99.90
2893;DHT22;1456;51.840;12.184;2023-11-21T01:14:17;8.50;99.90
2893;DHT22;1456;51.840;12.184;2023-11-21T01:16:43;8.50;99.90
2893;DHT22;1456;51.840;12.184;2023-11-21T01:19:08;8.50;99.90
2893;DHT22;1456;51.840;12.184;2023-11-21T01:21:34;8.40;99.90
2893;DHT22;1456;51.840;12.184;2023-11-21T01:24:01;8.40;99.90
2893;DHT22;1456;51.840;12.184;2023-11-21T01:26:28;8.30;99.90
2893;DHT22;1456;51.840;12.184;2023-11-21T01:28:53;8.30;99.90
2893;DHT22;1456;51.840;12.184;2023-11-21T01:31:19;8.30;99.90
2893;DHT22;1456;51.840;12.184;2023-11-21T01:33:46;8.40;99.90
2893;DHT22;1456;51.840;12.184;2023-11-21T01:36:11;8.40;99.90
2893;DHT22;1456;51.840;12.184;2023-11-21T01:38:37;8.40;99.90
2893;DHT22;1456;51.840;12.184;2023-11-21T01:41:03;8.40;99.90
2893;DHT22;1456;51.840;12.184;2023-11-21T01:43:29;8.40;99.90
2893;DHT22;1456;51.840;12.184;2023-11-21T01:45:57;8.40;99.90
2893;DHT22;1456;51.840;12.184;2023-11-21T01:48:23;8.50;99.90
2893;DHT22;1456;51.840;12.184;2023-11-21T01:50:48;8.50;99.90
2893;DHT22;1456;51.840;12.184;2023-11-21T01:53:14;8.60;99.90
2893;DHT22;1456;51.840;12.184;2023-11-21T01:55:41;8.60;99.90
2893;DHT22;1456;51.840;12.184;2023-11-21T01:58:07;8.60;99.90
2893;DHT22;1456;51.840;12.184;2023-11-21T02:00:34;8.60;99.90
2893;DHT22;1456;51.840;12.184;2023-11-21T02:03:00;8.60;99.90
2893;DHT22;1456;51.840;12.184;2023-11-21T02:05:26;8.60;99.90
2893;DHT22;1456;51.840;12.184;2023-11-21T02:07:53;8.60;99.90
2893;DHT22;1456;51.840;12.184;2023-11-21T02:10:18;8.60;99.90
2893;DHT22;1456;51.840;12.184;2023-11-21T02:12:48;8.50;99.90
2893;DHT22;1456;51.840;12.184;2023-11-21T02:15:15;8.50;99.90
2893;DHT22;1456;51.840;12.184;2023-11-21T02:17:45;8.50;99.90
2893;DHT22;1456;51.840;12.184;2023-11-21T02:20:12;8.50;99.90
2893;DHT22;1456;51.840;12.184;2023-11-21T02:22:43;8.50;99.90
2893;DHT22;1456;51.840;12.184;2023-11-21T02:25:10;8.40;99.90
2893;DHT22;1456;51.840;12.184;2023-11-21T02:27:36;8.40;99.90
2893;DHT22;1456;51.840;12.184;2023-11-21T02:30:03;8.40;99.90
2893;DHT22;1456;51.840;12.184;2023-11-21T02:32:30;8.30;99.90
2893;DHT22;1456;51.840;12.184;2023-11-21T02:34:57;8.30;99.90
2893;DHT22;1456;51.840;12.184;2023-11-21T02:37:27;8.30;99.90
2893;DHT22;1456;51.840;12.184;2023-11-21T02:39:53;8.40;99.90
2893;DHT22;1456;51.840;12.184;2023-11-21T02:42:19;8.40;99.90
2893;DHT22;1456;51.840;12.184;2023-11-21T02:44:45;8.40;99.90
2893;DHT22;1456;51.840;12.184;2023-11-21T02:47:12;8.40;99.90
2893;DHT22;1456;51.840;12.184;2023-11-21T02:49:38;8.50;99.90
2893;DHT22;1456;51.840;12.184;2023-11-21T02:52:04;8.50;99.90
2893;DHT22;1456;51.840;12.184;2023-11-21T02:54:31;8.50;99.90
2893;DHT22;1456;51.840;12.184;2023-11-21T02:57:02;8.50;99.90
2893;DHT22;1456;51.840;12.184;2023-11-21T02:59:28;8.50;99.90
2893;DHT22;1456;51.840;12.184;2023-11-21T03:01:53;8.50;99.90
2893;DHT22;1456;51.840;12.184;2023-11-21T03:04:19;8.50;99.90
2893;DHT22;1456;51.840;12.184;2023-11-21T03:06:45;8.50;99.90
2893;DHT22;1456;51.840;12.184;2023-11-21T03:09:11;8.60;99.90
2893;DHT22;1456;51.840;12.184;2023-11-21T03:11:37;8.50;99.90
2893;DHT22;1456;51.840;12.184;2023-11-21T03:14:03;8.50;99.90
2893;DHT22;1456;51.840;12.184;2023-11-21T03:16:29;8.60;99.90
2893;DHT22;1456;51.840;12.184;2023-11-21T03:18:54;8.60;99.90
2893;DHT22;1456;51.840;12.184;2023-11-21T03:21:20;8.60;99.90
2893;DHT22;1456;51.840;12.184;2023-11-21T03:23:45;8.60;99.90
2893;DHT22;1456;51.840;12.184;2023-11-21T03:26:15;8.70;99.90
2893;DHT22;1456;51.840;12.184;2023-11-21T03:28:41;8.50;99.90
2893;DHT22;1456;51.840;12.184;2023-11-21T03:31:07;8.50;99.90
2893;DHT22;1456;51.840;12.184;2023-11-21T03:33:34;8.40;99.90
2893;DHT22;1456;51.840;12.184;2023-11-21T03:36:00;8.40;99.90
2893;DHT22;1456;51.840;12.184;2023-11-21T03:38:26;8.30;99.90
2893;DHT22;1456;51.840;12.184;2023-11-21T03:40:51;8.30;99.90
2893;DHT22;1456;51.840;12.184;2023-11-21T03:43:17;8.20;99.90
2893;DHT22;1456;51.840;12.184;2023-11-21T03:45:42;8.30;99.90
2893;DHT22;1456;51.840;12.184;2023-11-21T03:48:08;8.30;99.90
2893;DHT22;1456;51.840;12.184;2023-11-21T03:50:34;8.30;99.90
2893;DHT22;1456;51.840;12.184;2023-11-21T03:53:01;8.30;99.90
2893;DHT22;1456;51.840;12.184;2023-11-21T03:55:26;8.30;99.90
2893;DHT22;1456;51.840;12.184;2023-11-21T03:57:53;8.30;99.90
2893;DHT22;1456;51.840;12.184;2023-11-21T04:00:18;8.30;99.90
2893;DHT22;1456;51.840;12.184;2023-11-21T04:02:45;8.30;99.90
2893;DHT22;1456;51.840;12.184;2023-11-21T04:05:11;8.30;99.90
2893;DHT22;1456;51.840;12.184;2023-11-21T04:07:38;8.30;99.90
2893;DHT22;1456;51.840;12.184;2023-11-21T04:10:06;8.30;99.90
2893;DHT22;1456;51.840;12.184;2023-11-21T04:12:33;8.30;99.90
2893;DHT22;1456;51.840;12.184;2023-11-21T04:14:59;8.30;99.90
2893;DHT22;1456;51.840;12.184;2023-11-21T04:17:24;8.20;99.90
2893;DHT22;1456;51.840;12.184;2023-11-21T04:19:51;8.20;99.90
2893;DHT22;1456;51.840;12.184;2023-11-21T04:22:16;8.20;99.90
2893;DHT22;1456;51.840;12.184;2023-11-21T04:24:43;8.20;99.90
2893;DHT22;1456;51.840;12.184;2023-11-21T04:27:09;8.20;99.90
2893;DHT22;1456;51.840;12.184;2023-11-21T04:29:34;8.20;99.90
2893;DHT22;1456;51.840;12.184;2023-11-21T04:32:01;8.20;99.90
2893;DHT22;1456;51.840;12.184;2023-11-21T04:34:28;8.20;99.90
2893;DHT22;1456;51.840;12.184;2023-11-21T04:36:59;8.20;99.90
2893;DHT22;1456;51.840;12.184;2023-11-21T04:39:25;8.20;99.90
2893;DHT22;1456;51.840;12.184;2023-11-21T04:41:50;8.20;99.90
2893;DHT22;1456;51.840;12.184;2023-11-21T04:44:16;8.20;99.90
2893;DHT22;1456;51.840;12.184;2023-11-21T04:46:42;8.20;99.90
2893;DHT22;1456;51.840;12.184;2023-11-21T04:49:07;8.10;99.90
2893;DHT22;1456;51.840;12.184;2023-11-21T04:51:33;8.20;99.90
2893;DHT22;1456;51.840;12.184;2023-11-21T04:54:00;8.20;99.90
2893;DHT22;1456;51.840;12.184;2023-11-21T04:56:25;8.20;99.90
2893;DHT22;1456;51.840;12.184;2023-11-21T04:58:51;8.20;99.90
2893;DHT22;1456;51.840;12.184;2023-11-21T05:01:17;8.20;99.90
2893;DHT22;1456;51.840;12.184;2023-11-21T05:03:43;8.10;99.90
2893;DHT22;1456;51.840;12.184;2023-11-21T05:06:11;8.10;99.90
2893;DHT22;1456;51.840;12.184;2023-11-21T05:08:37;8.10;99.90
2893;DHT22;1456;51.840;12.184;2023-11-21T05:11:03;7.90;99.90
2893;DHT22;1456;51.840;12.184;2023-11-21T05:13:29;7.80;99.90
2893;DHT22;1456;51.840;12.184;2023-11-21T05:15:55;7.70;99.90
2893;DHT22;1456;51.840;12.184;2023-11-21T05:18:25;7.70;99.90
2893;DHT22;1456;51.840;12.184;2023-11-21T05:20:56;7.60;99.90
2893;DHT22;1456;51.840;12.184;2023-11-21T05:23:22;7.60;99.90
2893;DHT22;1456;51.840;12.184;2023-11-21T05:25:48;7.60;99.90
2893;DHT22;1456;51.840;12.184;2023-11-21T05:28:14;7.50;99.90
2893;DHT22;1456;51.840;12.184;2023-11-21T05:30:40;7.50;99.90
2893;DHT22;1456;51.840;12.184;2023-11-21T05:33:06;7.40;99.90
2893;DHT22;1456;51.840;12.184;2023-11-21T05:35:31;7.40;99.90
2893;DHT22;1456;51.840;12.184;2023-11-21T05:37:57;7.40;99.90
2893;DHT22;1456;51.840;12.184;2023-11-21T05:40:22;7.40;99.90
2893;DHT22;1456;51.840;12.184;2023-11-21T05:42:48;7.40;99.90
2893;DHT22;1456;51.840;12.184;2023-11-21T05:45:13;7.40;99.90
2893;DHT22;1456;51.840;12.184;2023-11-21T05:47:41;7.40;99.90
2893;DHT22;1456;51.840;12.184;2023-11-21T05:50:08;7.40;99.90
2893;DHT22;1456;51.840;12.184;2023-11-21T05:52:38;7.40;99.90
2893;DHT22;1456;51.840;12.184;2023-11-21T05:55:08;7.40;99.90
2893;DHT22;1456;51.840;12.184;2023-11-21T05:57:38;7.40;99.90
2893;DHT22;1456;51.840;12.184;2023-11-21T06:00:07;7.30;99.90
2893;DHT22;1456;51.840;12.184;2023-11-21T06:02:55;7.30;99.90
2893;DHT22;1456;51.840;12.184;2023-11-21T06:05:24;7.30;99.90
2893;DHT22;1456;51.840;12.184;2023-11-21T06:07:50;7.10;99.90
2893;DHT22;1456;51.840;12.184;2023-11-21T06:10:16;7.10;99.90
2893;DHT22;1456;51.840;12.184;2023-11-21T06:12:43;7.00;99.90
2893;DHT22;1456;51.840;12.184;2023-11-21T06:15:08;7.00;99.90
2893;DHT22;1456;51.840;12.184;2023-11-21T06:17:36;7.00;99.90
2893;DHT22;1456;51.840;12.184;2023-11-21T06:20:02;7.10;99.90
2893;DHT22;1456;51.840;12.184;2023-11-21T06:22:37;7.10;99.90
2893;DHT22;1456;51.840;12.184;2023-11-21T06:25:03;7.10;99.90
2893;DHT22;1456;51.840;12.184;2023-11-21T06:27:34;7.00;99.90
2893;DHT22;1456;51.840;12.184;2023-11-21T06:30:00;7.00;99.90
2893;DHT22;1456;51.840;12.184;2023-11-21T06:32:26;7.00;99.90
2893;DHT22;1456;51.840;12.184;2023-11-21T06:34:56;7.00;99.90
2893;DHT22;1456;51.840;12.184;2023-11-21T06:37:25;7.10;99.90
2893;DHT22;1456;51.840;12.184;2023-11-21T06:39:52;7.00;99.90
2893;DHT22;1456;51.840;12.184;2023-11-21T06:42:18;7.00;99.90
2893;DHT22;1456;51.840;12.184;2023-11-21T06:44:48;7.00;99.90
2893;DHT22;1456;51.840;12.184;2023-11-21T06:47:14;7.00;99.90
2893;DHT22;1456;51.840;12.184;2023-11-21T06:49:41;6.80;99.90
2893;DHT22;1456;51.840;12.184;2023-11-21T06:52:06;6.90;99.90
2893;DHT22;1456;51.840;12.184;2023-11-21T06:54:33;6.90;99.90
2893;DHT22;1456;51.840;12.184;2023-11-21T06:56:59;7.00;99.90
2893;DHT22;1456;51.840;12.184;2023-11-21T06:59:24;7.00;99.90
2893;DHT22;1456;51.840;12.184;2023-11-21T07:01:50;6.90;99.90
2893;DHT22;1456;51.840;12.184;2023-11-21T07:04:15;6.80;99.90
2893;DHT22;1456;51.840;12.184;2023-11-21T07:06:41;6.70;99.90
2893;DHT22;1456;51.840;12.184;2023-11-21T07:09:08;6.70;99.90
2893;DHT22;1456;51.840;12.184;2023-11-21T07:11:35;6.70;99.90
2893;DHT22;1456;51.840;12.184;2023-11-21T07:14:00;6.60;99.90
2893;DHT22;1456;51.840;12.184;2023-11-21T07:16:35;6.70;99.90
2893;DHT22;1456;51.840;12.184;2023-11-21T07:19:08;6.70;99.90
2893;DHT22;1456;51.840;12.184;2023-11-21T07:21:36;6.70;99.90
2893;DHT22;1456;51.840;12.184;2023-11-21T07:24:02;6.70;99.90
2893;DHT22;1456;51.840;12.184;2023-11-21T07:26:27;6.80;99.90
2893;DHT22;1456;51.840;12.184;2023-11-21T07:28:53;7.00;99.90
2893;DHT22;1456;51.840;12.184;2023-11-21T07:31:20;7.00;99.90
2893;DHT22;1456;51.840;12.184;2023-11-21T07:33:46;7.00;99.90
2893;DHT22;1456;51.840;12.184;2023-11-21T07:36:13;6.90;99.90
2893;DHT22;1456;51.840;12.184;2023-11-21T07:38:41;6.90;99.90
2893;DHT22;1456;51.840;12.184;2023-11-21T07:41:07;7.00;99.90
2893;DHT22;1456;51.840;12.184;2023-11-21T07:43:35;7.00;99.90
2893;DHT22;1456;51.840;12.184;2023-11-21T07:46:02;7.00;99.90
2893;DHT22;1456;51.840;12.184;2023-11-21T07:48:31;6.90;99.90
2893;DHT22;1456;51.840;12.184;2023-11-21T07:50:57;6.90;99.90
2893;DHT22;1456;51.840;12.184;2023-11-21T07:53:26;7.00;99.90
2893;DHT22;1456;51.840;12.184;2023-11-21T07:55:54;6.90;99.90
2893;DHT22;1456;51.840;12.184;2023-11-21T07:58:20;6.90;99.90
2893;DHT22;1456;51.840;12.184;2023-11-21T08:00:45;6.90;99.90
2893;DHT22;1456;51.840;12.184;2023-11-21T08:03:13;6.90;99.90
2893;DHT22;1456;51.840;12.184;2023-11-21T08:05:39;6.70;99.90
2893;DHT22;1456;51.840;12.184;2023-11-21T08:08:05;6.70;99.90
2893;DHT22;1456;51.840;12.184;2023-11-21T08:10:30;6.60;99.90
2893;DHT22;1456;51.840;12.184;2023-11-21T08:12:56;6.70;99.90
2893;DHT22;1456;51.840;12.184;2023-11-21T08:15:21;6.70;99.90
2893;DHT22;1456;51.840;12.184;2023-11-21T08:17:47;6.70;99.90
2893;DHT22;1456;51.840;12.184;2023-11-21T08:20:13;6.80;99.90
2893;DHT22;1456;51.840;12.184;2023-11-21T08:22:44;6.80;99.90
2893;DHT22;1456;51.840;12.184;2023-11-21T08:25:10;6.80;99.90
2893;DHT22;1456;51.840;12.184;2023-11-21T08:27:36;6.90;99.90
2893;DHT22;1456;51.840;12.184;2023-11-21T08:30:03;6.90;99.90
2893;DHT22;1456;51.840;12.184;2023-11-21T08:32:29;7.00;99.90
2893;DHT22;1456;51.840;12.184;2023-11-21T08:35:00;7.20;99.90
2893;DHT22;1456;51.840;12.184;2023-11-21T08:37:26;7.20;99.90
2893;DHT22;1456;51.840;12.184;2023-11-21T08:39:52;7.20;99.90
2893;DHT22;1456;51.840;12.184;2023-11-21T08:42:18;7.20;99.90
2893;DHT22;1456;51.840;12.184;2023-11-21T08:44:44;7.30;99.90
2893;DHT22;1456;51.840;12.184;2023-11-21T08:47:09;7.40;99.90
2893;DHT22;1456;51.840;12.184;2023-11-21T08:49:35;7.50;99.90
2893;DHT22;1456;51.840;12.184;2023-11-21T08:52:01;7.50;99.90
2893;DHT22;1456;51.840;12.184;2023-11-21T08:54:26;7.40;99.90
2893;DHT22;1456;51.840;12.184;2023-11-21T08:56:55;7.50;99.90
2893;DHT22;1456;51.840;12.184;2023-11-21T08:59:21;7.50;99.90
2893;DHT22;1456;51.840;12.184;2023-11-21T09:01:47;7.50;99.90
2893;DHT22;1456;51.840;12.184;2023-11-21T09:04:13;7.50;99.90
2893;DHT22;1456;51.840;12.184;2023-11-21T09:06:39;7.50;99.90
2893;DHT22;1456;51.840;12.184;2023-11-21T09:09:05;7.50;99.90
2893;DHT22;1456;51.840;12.184;2023-11-21T09:11:32;7.50;99.90
2893;DHT22;1456;51.840;12.184;2023-11-21T09:14:02;7.60;99.90
2893;DHT22;1456;51.840;12.184;2023-11-21T09:16:28;7.70;99.90
2893;DHT22;1456;51.840;12.184;2023-11-21T09:18:54;7.70;99.90
2893;DHT22;1456;51.840;12.184;2023-11-21T09:21:20;7.70;99.90
2893;DHT22;1456;51.840;12.184;2023-11-21T09:23:45;7.70;99.90
2893;DHT22;1456;51.840;12.184;2023-11-21T09:26:13;7.60;99.90
2893;DHT22;1456;51.840;12.184;2023-11-21T09:28:43;7.50;99.90
2893;DHT22;1456;51.840;12.184;2023-11-21T09:31:13;7.30;99.90
2893;DHT22;1456;51.840;12.184;2023-11-21T09:33:42;7.20;99.90
2893;DHT22;1456;51.840;12.184;2023-11-21T09:36:11;7.10;99.90
2893;DHT22;1456;51.840;12.184;2023-11-21T09:38:36;7.10;99.90
2893;DHT22;1456;51.840;12.184;2023-11-21T09:41:02;7.10;99.90
2893;DHT22;1456;51.840;12.184;2023-11-21T09:43:29;7.20;99.90
2893;DHT22;1456;51.840;12.184;2023-11-21T09:46:02;7.10;99.90
2893;DHT22;1456;51.840;12.184;2023-11-21T09:48:30;7.10;99.90
2893;DHT22;1456;51.840;12.184;2023-11-21T09:50:58;7.20;99.90
2893;DHT22;1456;51.840;12.184;2023-11-21T09:53:26;7.10;99.90
2893;DHT22;1456;51.840;12.184;2023-11-21T09:55:55;7.20;99.90
2893;DHT22;1456;51.840;12.184;2023-11-21T09:58:21;7.00;99.90
2893;DHT22;1456;51.840;12.184;2023-11-21T10:00:49;7.00;99.90
2893;DHT22;1456;51.840;12.184;2023-11-21T10:03:15;7.10;99.90
2893;DHT22;1456;51.840;12.184;2023-11-21T10:05:43;7.10;99.90
2893;DHT22;1456;51.840;12.184;2023-11-21T10:08:11;7.10;99.90
2893;DHT22;1456;51.840;12.184;2023-11-21T10:10:37;7.00;99.90
2893;DHT22;1456;51.840;12.184;2023-11-21T10:13:04;7.00;99.90
2893;DHT22;1456;51.840;12.184;2023-11-21T10:15:35;7.00;99.90
2893;DHT22;1456;51.840;12.184;2023-11-21T10:18:05;7.00;99.90
2893;DHT22;1456;51.840;12.184;2023-11-21T10:20:32;7.00;99.90
2893;DHT22;1456;51.840;12.184;2023-11-21T10:22:59;6.80;99.90
2893;DHT22;1456;51.840;12.184;2023-11-21T10:25:26;6.50;99.90
2893;DHT22;1456;51.840;12.184;2023-11-21T10:27:57;6.40;99.90
2893;DHT22;1456;51.840;12.184;2023-11-21T10:30:22;6.30;99.90
2893;DHT22;1456;51.840;12.184;2023-11-21T10:32:50;6.20;99.90
2893;DHT22;1456;51.840;12.184;2023-11-21T10:35:16;6.10;99.90
2893;DHT22;1456;51.840;12.184;2023-11-21T10:37:43;6.00;99.90
2893;DHT22;1456;51.840;12.184;2023-11-21T10:40:09;6.00;99.90
2893;DHT22;1456;51.840;12.184;2023-11-21T10:42:38;6.00;99.90
2893;DHT22;1456;51.840;12.184;2023-11-21T10:45:07;6.00;99.90
2893;DHT22;1456;51.840;12.184;2023-11-21T10:47:40;6.00;99.90
2893;DHT22;1456;51.840;12.184;2023-11-21T10:50:06;6.10;99.90
2893;DHT22;1456;51.840;12.184;2023-11-21T10:52:34;6.00;99.90
2893;DHT22;1456;51.840;12.184;2023-11-21T10:55:01;6.00;99.90
2893;DHT22;1456;51.840;12.184;2023-11-21T10:57:28;5.90;99.90
2893;DHT22;1456;51.840;12.184;2023-11-21T10:59:55;5.90;99.90
2893;DHT22;1456;51.840;12.184;2023-11-21T11:02:24;6.00;99.90
2893;DHT22;1456;51.840;12.184;2023-11-21T11:04:53;5.90;99.90
2893;DHT22;1456;51.840;12.184;2023-11-21T11:07:21;6.00;99.90
2893;DHT22;1456;51.840;12.184;2023-11-21T11:09:50;6.00;99.90
2893;DHT22;1456;51.840;12.184;2023-11-21T11:12:17;6.00;99.90
2893;DHT22;1456;51.840;12.184;2023-11-21T11:14:45;6.20;99.90
2893;DHT22;1456;51.840;12.184;2023-11-21T11:17:10;6.30;99.90
2893;DHT22;1456;51.840;12.184;2023-11-21T11:19:37;6.30;99.90
2893;DHT22;1456;51.840;12.184;2023-11-21T11:25:30;6.40;99.90
2893;DHT22;1456;51.840;12.184;2023-11-21T11:27:34;6.60;99.90
2893;DHT22;1456;51.840;12.184;2023-11-21T11:32:34;6.80;99.90
2893;DHT22;1456;51.840;12.184;2023-11-21T11:35:10;6.90;99.90
2893;DHT22;1456;51.840;12.184;2023-11-21T11:37:40;6.80;99.90
2893;DHT22;1456;51.840;12.184;2023-11-21T11:40:06;6.70;99.90
2893;DHT22;1456;51.840;12.184;2023-11-21T11:42:32;6.70;99.90
2893;DHT22;1456;51.840;12.184;2023-11-21T11:44:57;6.60;99.90
2893;DHT22;1456;51.840;12.184;2023-11-21T11:47:27;6.40;99.90
2893;DHT22;1456;51.840;12.184;2023-11-21T11:50:05;6.40;99.90
2893;DHT22;1456;51.840;12.184;2023-11-21T11:52:46;6.50;99.90
2893;DHT22;1456;51.840;12.184;2023-11-21T11:55:12;6.40;99.90
2893;DHT22;1456;51.840;12.184;2023-11-21T11:57:39;6.40;99.90
2893;DHT22;1456;51.840;12.184;2023-11-21T12:00:12;6.40;99.90
2893;DHT22;1456;51.840;12.184;2023-11-21T12:02:42;6.30;99.90
2893;DHT22;1456;51.840;12.184;2023-11-21T12:05:12;6.40;99.90
2893;DHT22;1456;51.840;12.184;2023-11-21T12:07:40;6.40;99.90
2893;DHT22;1456;51.840;12.184;2023-11-21T12:10:07;6.40;99.90
2893;DHT22;1456;51.840;12.184;2023-11-21T12:12:34;6.40;99.90
2893;DHT22;1456;51.840;12.184;2023-11-21T12:15:00;6.40;99.90
2893;DHT22;1456;51.840;12.184;2023-11-21T12:17:26;6.30;99.90
2893;DHT22;1456;51.840;12.184;2023-11-21T12:19:52;6.30;99.90
2893;DHT22;1456;51.840;12.184;2023-11-21T12:22:17;6.30;99.90
2893;DHT22;1456;51.840;12.184;2023-11-21T12:24:43;6.30;99.90
2893;DHT22;1456;51.840;12.184;2023-11-21T12:27:10;6.40;99.90
2893;DHT22;1456;51.840;12.184;2023-11-21T12:29:35;6.50;99.90
2893;DHT22;1456;51.840;12.184;2023-11-21T12:32:04;6.50;99.90
2893;DHT22;1456;51.840;12.184;2023-11-21T12:34:31;6.60;99.90
2893;DHT22;1456;51.840;12.184;2023-11-21T12:36:58;6.60;99.90
2893;DHT22;1456;51.840;12.184;2023-11-21T12:39:24;6.50;99.90
2893;DHT22;1456;51.840;12.184;2023-11-21T12:41:49;6.50;99.90
2893;DHT22;1456;51.840;12.184;2023-11-21T12:44:15;6.50;99.90
2893;DHT22;1456;51.840;12.184;2023-11-21T12:46:42;6.50;99.90
2893;DHT22;1456;51.840;12.184;2023-11-21T12:49:07;6.40;99.90
2893;DHT22;1456;51.840;12.184;2023-11-21T12:51:33;6.50;99.90
2893;DHT22;1456;51.840;12.184;2023-11-21T12:53:59;6.50;99.90
2893;DHT22;1456;51.840;12.184;2023-11-21T12:56:25;6.40;99.90
2893;DHT22;1456;51.840;12.184;2023-11-21T12:58:53;6.30;99.90
2893;DHT22;1456;51.840;12.184;2023-11-21T13:01:19;6.30;99.90
2893;DHT22;1456;51.840;12.184;2023-11-21T13:03:47;6.20;99.90
2893;DHT22;1456;51.840;12.184;2023-11-21T13:06:14;6.20;99.90
2893;DHT22;1456;51.840;12.184;2023-11-21T13:08:40;6.20;99.90
2893;DHT22;1456;51.840;12.184;2023-11-21T13:11:05;6.10;99.90
2893;DHT22;1456;51.840;12.184;2023-11-21T13:13:31;6.20;99.90
2893;DHT22;1456;51.840;12.184;2023-11-21T13:16:01;6.10;99.90
2893;DHT22;1456;51.840;12.184;2023-11-21T13:18:31;6.20;99.90
2893;DHT22;1456;51.840;12.184;2023-11-21T13:21:03;6.20;99.90
2893;DHT22;1456;51.840;12.184;2023-11-21T13:23:38;6.20;99.90
2893;DHT22;1456;51.840;12.184;2023-11-21T13:26:04;6.20;99.90
2893;DHT22;1456;51.840;12.184;2023-11-21T13:28:31;6.20;99.90
2893;DHT22;1456;51.840;12.184;2023-11-21T13:31:01;6.20;99.90
2893;DHT22;1456;51.840;12.184;2023-11-21T13:33:40;6.20;99.90
2893;DHT22;1456;51.840;12.184;2023-11-21T13:36:08;6.20;99.90
2893;DHT22;1456;51.840;12.184;2023-11-21T13:38:34;6.30;99.90
2893;DHT22;1456;51.840;12.184;2023-11-21T13:41:01;6.30;99.90
2893;DHT22;1456;51.840;12.184;2023-11-21T13:43:26;6.30;99.90
2893;DHT22;1456;51.840;12.184;2023-11-21T13:45:54;6.10;99.90
2893;DHT22;1456;51.840;12.184;2023-11-21T13:48:29;6.20;99.90
2893;DHT22;1456;51.840;12.184;2023-11-21T13:51:06;6.20;99.90
2893;DHT22;1456;51.840;12.184;2023-11-21T13:53:44;6.10;99.90
2893;DHT22;1456;51.840;12.184;2023-11-21T13:56:13;6.10;99.90
2893;DHT22;1456;51.840;12.184;2023-11-21T13:58:42;6.20;99.90
2893;DHT22;1456;51.840;12.184;2023-11-21T14:01:17;6.20;99.90
2893;DHT22;1456;51.840;12.184;2023-11-21T14:03:57;6.10;99.90
2893;DHT22;1456;51.840;12.184;2023-11-21T14:06:33;6.10;99.90
2893;DHT22;1456;51.840;12.184;2023-11-21T14:09:05;6.10;99.90
2893;DHT22;1456;51.840;12.184;2023-11-21T14:11:32;6.00;99.90
2893;DHT22;1456;51.840;12.184;2023-11-21T14:14:05;6.00;99.90
2893;DHT22;1456;51.840;12.184;2023-11-21T14:16:31;5.90;99.90
2893;DHT22;1456;51.840;12.184;2023-11-21T14:18:57;5.90;99.90
2893;DHT22;1456;51.840;12.184;2023-11-21T14:21:30;5.80;99.90
2893;DHT22;1456;51.840;12.184;2023-11-21T14:23:57;5.70;99.90
2893;DHT22;1456;51.840;12.184;2023-11-21T14:26:23;5.60;99.90
2893;DHT22;1456;51.840;12.184;2023-11-21T14:28:50;5.60;99.90
2893;DHT22;1456;51.840;12.184;2023-11-21T14:31:17;5.50;99.90
2893;DHT22;1456;51.840;12.184;2023-11-21T14:33:46;5.40;99.90
2893;DHT22;1456;51.840;12.184;2023-11-21T14:36:12;5.40;99.90
2893;DHT22;1456;51.840;12.184;2023-11-21T14:38:39;5.40;99.90
2893;DHT22;1456;51.840;12.184;2023-11-21T14:41:05;5.40;99.90
2893;DHT22;1456;51.840;12.184;2023-11-21T14:43:33;5.40;99.90
2893;DHT22;1456;51.840;12.184;2023-11-21T14:46:01;5.30;99.90
2893;DHT22;1456;51.840;12.184;2023-11-21T14:48:28;5.20;99.90
2893;DHT22;1456;51.840;12.184;2023-11-21T14:51:10;5.20;99.90
2893;DHT22;1456;51.840;12.184;2023-11-21T14:53:55;5.10;99.90
2893;DHT22;1456;51.840;12.184;2023-11-21T14:56:24;5.10;99.90
2893;DHT22;1456;51.840;12.184;2023-11-21T14:58:56;5.10;99.90
2893;DHT22;1456;51.840;12.184;2023-11-21T15:01:22;5.10;99.90
2893;DHT22;1456;51.840;12.184;2023-11-21T15:04:10;5.00;99.90
2893;DHT22;1456;51.840;12.184;2023-11-21T15:06:47;4.90;99.90
2893;DHT22;1456;51.840;12.184;2023-11-21T15:09:13;4.80;99.90
2893;DHT22;1456;51.840;12.184;2023-11-21T15:11:40;4.80;99.90
2893;DHT22;1456;51.840;12.184;2023-11-21T15:14:06;4.70;99.90
2893;DHT22;1456;51.840;12.184;2023-11-21T15:16:32;4.60;99.90
2893;DHT22;1456;51.840;12.184;2023-11-21T15:18:58;4.60;99.90
2893;DHT22;1456;51.840;12.184;2023-11-21T15:21:23;4.60;99.90
2893;DHT22;1456;51.840;12.184;2023-11-21T15:23:50;4.60;99.90
2893;DHT22;1456;51.840;12.184;2023-11-21T15:26:16;4.60;99.90
2893;DHT22;1456;51.840;12.184;2023-11-21T15:28:43;4.60;99.90
2893;DHT22;1456;51.840;12.184;2023-11-21T15:31:08;4.60;99.90
2893;DHT22;1456;51.840;12.184;2023-11-21T15:33:35;4.50;99.90
2893;DHT22;1456;51.840;12.184;2023-11-21T15:36:04;4.50;99.90
2893;DHT22;1456;51.840;12.184;2023-11-21T15:38:31;4.40;99.90
2893;DHT22;1456;51.840;12.184;2023-11-21T15:40:57;4.30;99.90
2893;DHT22;1456;51.840;12.184;2023-11-21T15:43:24;4.20;99.90
2893;DHT22;1456;51.840;12.184;2023-11-21T15:45:49;4.10;99.90
2893;DHT22;1456;51.840;12.184;2023-11-21T15:48:16;4.10;99.90
2893;DHT22;1456;51.840;12.184;2023-11-21T15:53:12;4.00;99.90
2893;DHT22;1456;51.840;12.184;2023-11-21T15:55:38;4.00;99.90
2893;DHT22;1456;51.840;12.184;2023-11-21T15:58:08;4.00;99.90
2893;DHT22;1456;51.840;12.184;2023-11-21T16:00:34;4.00;99.90
2893;DHT22;1456;51.840;12.184;2023-11-21T16:03:00;4.00;99.90
2893;DHT22;1456;51.840;12.184;2023-11-21T16:05:26;4.00;99.90
2893;DHT22;1456;51.840;12.184;2023-11-21T16:07:51;4.00;99.90
2893;DHT22;1456;51.840;12.184;2023-11-21T16:10:17;4.00;99.90